Arbor Vitae, Wisconsin
Current Conditions -  °F | °C
As of 3:55 AM on Friday 31 Oct 2014 (Local Time) from KARV Reporting Station
NA  
Wind Chill: 19°   Ceiling: NA
Heat Index: 31°   Visibility: NA
Dew Point: 29°   Wind: 20mph
Humidity: 90%   Direction: 360°N
Pressure: 30.24"   Gusts: NA
Location:  45.9553°N, 89.6779°W
Report Text: KARV 310855Z AUTO 36017KT 00/M02 A3024 RMK AO2 T10031017 PWINO
Loading
Personal Weather Stations






























Interactive Weather Map
Tropical Storm Tracking
New forecast layout! Learn more

10-Day Weather Forecast

Advertisements
Track Severe Weather on mobile